Time;durP1;ratioP1;P1;durP2;ratioP2;P2;SDS_P1;SDS_P2;PMS_P1;PMS_P2;Temp;Humidity;BMP_temperature;BMP_pressure;BME280_temperature;BME280_humidity;BME280_pressure;Samples;Min_cycle;Max_cycle;Signal;HPM_P1;HPM_P2
2021/09/03 00:01:07;;;;;;;12.00;10.30;;;13.90;99.90;;;;;;4959741;29;20465;-83
2021/09/03 00:03:35;;;;;;;10.43;9.50;;;13.90;99.90;;;;;;4957906;28;20469;-83
2021/09/03 00:06:03;;;;;;;11.10;10.10;;;13.90;99.90;;;;;;4959352;29;20955;-83
2021/09/03 00:08:30;;;;;;;11.50;10.30;;;13.90;99.90;;;;;;4958919;28;20459;-83
2021/09/03 00:10:57;;;;;;;10.97;9.87;;;13.90;99.90;;;;;;4958818;28;20452;-83
2021/09/03 00:13:25;;;;;;;11.23;10.23;;;13.90;99.90;;;;;;4957851;28;21096;-83
2021/09/03 00:15:53;;;;;;;11.63;10.50;;;13.90;99.90;;;;;;4958602;29;20468;-83
2021/09/03 00:18:19;;;;;;;10.80;9.53;;;13.80;99.90;;;;;;4959548;28;20523;-83
2021/09/03 00:20:53;;;;;;;9.90;8.90;;;13.80;99.90;;;;;;4958322;28;20460;-83
2021/09/03 00:23:25;;;;;;;9.93;8.93;;;13.80;99.90;;;;;;4956485;29;20479;-83
2021/09/03 00:25:53;;;;;;;11.87;10.67;;;13.70;99.90;;;;;;4958977;29;20461;-83
2021/09/03 00:28:19;;;;;;;11.53;9.37;;;13.70;99.90;;;;;;4962428;28;20468;-82
2021/09/03 00:30:46;;;;;;;10.63;9.63;;;13.70;99.90;;;;;;4970909;28;20447;-82
2021/09/03 00:33:13;;;;;;;9.33;8.53;;;13.60;99.90;;;;;;4970887;28;20493;-82
2021/09/03 00:35:40;;;;;;;10.87;9.33;;;13.60;99.90;;;;;;4968240;28;20449;-83
2021/09/03 00:38:07;;;;;;;10.13;9.20;;;13.50;99.90;;;;;;4965037;28;20515;-82
2021/09/03 00:40:41;;;;;;;10.20;9.03;;;13.50;99.90;;;;;;4964806;29;20460;-83
2021/09/03 00:43:11;;;;;;;10.07;9.17;;;13.50;99.90;;;;;;4964016;28;20483;-82
2021/09/03 00:45:41;;;;;;;11.13;9.97;;;13.50;99.90;;;;;;4964186;28;20485;-82
2021/09/03 00:48:11;;;;;;;10.97;9.33;;;13.50;99.90;;;;;;4964589;28;20456;-83
2021/09/03 00:50:43;;;;;;;12.07;9.90;;;13.40;99.90;;;;;;4964572;29;20846;-83
2021/09/03 00:53:10;;;;;;;10.87;8.73;;;13.40;99.90;;;;;;4963561;29;20515;-83
2021/09/03 00:55:39;;;;;;;10.37;9.47;;;13.40;99.90;;;;;;4964742;28;20479;-82
2021/09/03 00:58:20;;;;;;;10.77;9.67;;;13.40;99.90;;;;;;4964675;28;20456;-83
2021/09/03 01:00:52;;;;;;;10.63;8.90;;;13.40;99.90;;;;;;4964691;28;20468;-83
2021/09/03 01:03:19;;;;;;;9.20;8.40;;;13.40;99.90;;;;;;4963728;28;20480;-83
2021/09/03 01:06:02;;;;;;;11.83;9.50;;;13.30;99.90;;;;;;4965302;28;20454;-83
2021/09/03 01:08:35;;;;;;;11.13;10.07;;;13.30;99.90;;;;;;4964770;29;21086;-82
2021/09/03 01:11:03;;;;;;;10.63;9.03;;;13.30;99.90;;;;;;4964475;28;20819;-82
2021/09/03 01:13:30;;;;;;;9.97;9.17;;;13.30;99.90;;;;;;4963675;28;21031;-83
2021/09/03 01:15:57;;;;;;;9.47;8.60;;;13.20;99.90;;;;;;4964831;28;20452;-83
2021/09/03 01:18:24;;;;;;;9.47;8.47;;;13.20;99.90;;;;;;4964844;28;20474;-83
2021/09/03 01:20:51;;;;;;;10.90;9.60;;;13.20;99.90;;;;;;4964492;28;20456;-82
2021/09/03 01:23:19;;;;;;;9.37;8.70;;;13.20;99.90;;;;;;4964095;29;20483;-83
2021/09/03 01:25:46;;;;;;;10.20;8.70;;;13.10;99.90;;;;;;4964565;28;20460;-83
2021/09/03 01:28:13;;;;;;;8.83;8.03;;;13.10;99.90;;;;;;4964706;28;20479;-82
2021/09/03 01:30:40;;;;;;;11.57;10.43;;;13.10;99.90;;;;;;4964377;28;20452;-83
2021/09/03 01:33:07;;;;;;;11.60;9.77;;;13.10;99.90;;;;;;4963775;28;20488;-82
2021/09/03 01:35:33;;;;;;;10.20;8.50;;;13.00;99.90;;;;;;4965051;28;20452;-82
2021/09/03 01:38:00;;;;;;;11.67;10.43;;;13.00;99.90;;;;;;4964393;28;20459;-83
2021/09/03 01:40:28;;;;;;;11.23;10.23;;;13.00;99.90;;;;;;4964331;28;20546;-82
2021/09/03 01:42:55;;;;;;;8.60;7.70;;;13.00;99.90;;;;;;4963595;29;20472;-83
2021/09/03 01:45:22;;;;;;;10.40;9.43;;;12.90;99.90;;;;;;4964569;29;20967;-82
2021/09/03 01:47:49;;;;;;;9.43;8.53;;;13.00;99.90;;;;;;4961864;28;20463;-82
2021/09/03 01:50:16;;;;;;;10.30;8.63;;;13.00;99.90;;;;;;4961067;28;20452;-82
2021/09/03 01:52:42;;;;;;;10.10;9.10;;;12.90;99.90;;;;;;4960223;28;20503;-83
2021/09/03 01:55:10;;;;;;;9.13;8.10;;;12.90;99.90;;;;;;4960858;28;20559;-82
2021/09/03 01:57:39;;;;;;;10.03;8.80;;;12.90;99.90;;;;;;4960956;29;20453;-82
2021/09/03 02:00:11;;;;;;;11.03;9.40;;;12.90;99.90;;;;;;4961497;28;20456;-82
2021/09/03 02:02:38;;;;;;;9.87;8.53;;;12.90;99.90;;;;;;4960494;29;20480;-82
2021/09/03 02:05:05;;;;;;;10.50;9.40;;;12.90;99.90;;;;;;4961205;29;20467;-82
2021/09/03 02:07:32;;;;;;;10.70;8.87;;;12.80;99.90;;;;;;4960908;29;20453;-82
2021/09/03 02:09:59;;;;;;;11.87;10.67;;;12.80;99.90;;;;;;4960760;28;20460;-82
2021/09/03 02:12:26;;;;;;;9.90;8.90;;;12.80;99.90;;;;;;4960624;29;20717;-82
2021/09/03 02:14:54;;;;;;;12.07;9.40;;;12.70;99.90;;;;;;4960920;29;20484;-82
2021/09/03 02:17:21;;;;;;;11.63;9.77;;;12.70;99.90;;;;;;4960975;29;20471;-82
2021/09/03 02:19:48;;;;;;;10.83;9.77;;;12.70;99.90;;;;;;4961049;29;20460;-82
2021/09/03 02:22:18;;;;;;;9.80;8.90;;;12.70;99.90;;;;;;4959640;29;20484;-83
2021/09/03 02:24:44;;;;;;;9.33;8.37;;;12.70;99.90;;;;;;4960418;29;20452;-82
2021/09/03 02:27:11;;;;;;;11.67;10.33;;;12.70;99.90;;;;;;4959430;28;20460;-82
2021/09/03 02:29:38;;;;;;;11.97;9.20;;;12.70;99.90;;;;;;4959766;28;20460;-82
2021/09/03 02:32:06;;;;;;;11.07;8.80;;;12.60;99.90;;;;;;4959923;29;20453;-82
2021/09/03 02:34:36;;;;;;;9.77;8.83;;;12.60;99.90;;;;;;4960345;29;20495;-82
2021/09/03 02:37:03;;;;;;;10.40;9.40;;;12.60;99.90;;;;;;4960255;29;20463;-82
2021/09/03 02:39:30;;;;;;;8.53;7.63;;;12.60;99.90;;;;;;4960358;29;20463;-82
2021/09/03 02:41:57;;;;;;;10.30;9.30;;;12.60;99.90;;;;;;4959248;29;20468;-82
2021/09/03 02:44:23;;;;;;;11.70;10.50;;;12.60;99.90;;;;;;4959930;29;20465;-83
2021/09/03 02:46:50;;;;;;;10.80;9.57;;;12.50;99.90;;;;;;4960397;29;20824;-82
2021/09/03 02:49:18;;;;;;;11.70;10.50;;;12.50;99.90;;;;;;4960120;29;20507;-82
2021/09/03 02:51:45;;;;;;;9.40;8.30;;;12.50;99.90;;;;;;4959531;29;20964;-82
2021/09/03 02:54:12;;;;;;;9.70;8.80;;;12.40;99.90;;;;;;4959901;28;20492;-82
2021/09/03 02:56:38;;;;;;;9.77;8.87;;;12.40;99.90;;;;;;4960198;29;20456;-82
2021/09/03 02:59:06;;;;;;;10.40;9.30;;;12.40;99.90;;;;;;4960196;28;20460;-82
2021/09/03 03:01:32;;;;;;;9.87;8.97;;;12.40;99.90;;;;;;4959303;29;20463;-82
2021/09/03 03:03:59;;;;;;;9.77;8.97;;;12.40;99.90;;;;;;4960173;28;20477;-82
2021/09/03 03:06:27;;;;;;;11.77;10.37;;;12.40;99.90;;;;;;4960011;29;20449;-82
2021/09/03 03:08:54;;;;;;;12.43;11.13;;;12.30;99.90;;;;;;4960271;29;20470;-82
2021/09/03 03:11:21;;;;;;;10.77;9.70;;;12.20;99.90;;;;;;4959460;29;20452;-83
2021/09/03 03:13:51;;;;;;;10.17;9.00;;;12.20;99.90;;;;;;4959236;28;20509;-82
2021/09/03 03:16:17;;;;;;;10.90;8.60;;;12.20;99.90;;;;;;4959437;28;20517;-83
2021/09/03 03:18:44;;;;;;;10.00;9.10;;;12.20;99.90;;;;;;4959525;29;20461;-83
2021/09/03 03:21:11;;;;;;;9.00;8.10;;;12.10;99.90;;;;;;4959746;28;20456;-83
2021/09/03 03:23:39;;;;;;;10.40;9.30;;;12.20;99.90;;;;;;4959125;29;20475;-83
2021/09/03 03:26:05;;;;;;;10.43;9.43;;;12.10;99.90;;;;;;4959223;28;20465;-84
2021/09/03 03:28:32;;;;;;;10.07;9.07;;;12.10;99.90;;;;;;4959679;28;20466;-83
2021/09/03 03:30:59;;;;;;;12.17;9.70;;;12.10;99.90;;;;;;4959961;29;20461;-83
2021/09/03 03:33:26;;;;;;;9.33;8.53;;;12.10;99.90;;;;;;4958504;29;20499;-83
2021/09/03 03:35:58;;;;;;;9.80;8.90;;;12.10;99.90;;;;;;4959430;29;20469;-83
2021/09/03 03:38:25;;;;;;;9.80;8.87;;;12.10;99.90;;;;;;4959207;29;20460;-83
2021/09/03 03:40:53;;;;;;;8.43;7.63;;;12.10;99.90;;;;;;4959603;28;20453;-82
2021/09/03 03:43:20;;;;;;;10.00;7.97;;;12.10;99.90;;;;;;4959110;29;20484;-82
2021/09/03 03:45:47;;;;;;;9.80;8.90;;;12.10;99.90;;;;;;4959115;29;20460;-82
2021/09/03 03:48:13;;;;;;;10.33;8.40;;;12.00;99.90;;;;;;4959228;29;20456;-82
2021/09/03 03:50:40;;;;;;;10.17;9.10;;;12.00;99.90;;;;;;4958943;28;20456;-82
2021/09/03 03:53:11;;;;;;;9.97;8.97;;;12.00;99.90;;;;;;4958808;28;20480;-82
2021/09/03 03:55:38;;;;;;;11.30;9.93;;;12.00;99.90;;;;;;4958931;28;20453;-82
2021/09/03 03:58:06;;;;;;;11.27;10.17;;;12.00;99.90;;;;;;4958820;29;20460;-82
2021/09/03 04:00:33;;;;;;;9.90;8.90;;;11.90;99.90;;;;;;4959625;29;20951;-82
2021/09/03 04:03:02;;;;;;;9.50;8.60;;;12.00;99.90;;;;;;4958238;29;20487;-82
2021/09/03 04:05:28;;;;;;;12.30;10.23;;;12.00;99.90;;;;;;4958430;28;20560;-82
2021/09/03 04:07:55;;;;;;;10.77;9.33;;;11.90;99.90;;;;;;4958884;29;20467;-82
2021/09/03 04:10:23;;;;;;;9.27;8.17;;;11.80;99.90;;;;;;4958808;28;20487;-82
2021/09/03 04:12:50;;;;;;;8.27;7.20;;;11.80;99.90;;;;;;4958199;29;20481;-82
2021/09/03 04:15:18;;;;;;;9.37;8.40;;;11.80;99.90;;;;;;4958740;28;20494;-82
2021/09/03 04:17:45;;;;;;;9.53;8.73;;;11.80;99.90;;;;;;4959464;28;20461;-82
2021/09/03 04:20:12;;;;;;;11.47;10.33;;;11.80;99.90;;;;;;4958987;28;20454;-82
2021/09/03 04:22:39;;;;;;;9.43;8.60;;;11.80;99.90;;;;;;4958139;28;20966;-82
2021/09/03 04:25:07;;;;;;;9.30;7.90;;;11.80;99.90;;;;;;4959158;29;20455;-82
2021/09/03 04:27:41;;;;;;;9.70;8.70;;;11.70;99.90;;;;;;4959077;29;20460;-82
2021/09/03 04:30:09;;;;;;;10.77;9.57;;;11.70;99.90;;;;;;4958830;29;20466;-83
2021/09/03 04:32:37;;;;;;;9.87;8.70;;;11.70;99.90;;;;;;4958598;29;20516;-82
2021/09/03 04:35:05;;;;;;;12.03;10.87;;;11.70;99.90;;;;;;4958978;28;20497;-82
2021/09/03 04:37:32;;;;;;;10.97;9.87;;;11.70;99.90;;;;;;4958631;29;20472;-82
2021/09/03 04:39:59;;;;;;;10.50;8.57;;;11.70;99.90;;;;;;4957973;29;20483;-82
2021/09/03 04:42:26;;;;;;;10.20;8.97;;;11.70;99.90;;;;;;4957978;29;20475;-82
2021/09/03 04:44:52;;;;;;;11.13;10.03;;;11.70;99.90;;;;;;4958567;29;20506;-82
2021/09/03 04:47:19;;;;;;;11.60;10.30;;;11.70;99.90;;;;;;4958966;29;20490;-82
2021/09/03 04:49:47;;;;;;;11.00;9.90;;;11.70;99.90;;;;;;4958029;29;20802;-82
2021/09/03 04:52:14;;;;;;;15.57;11.20;;;11.70;99.90;;;;;;4957384;29;20461;-82
2021/09/03 04:54:41;;;;;;;12.20;10.90;;;11.70;99.90;;;;;;4958642;29;20470;-82
2021/09/03 04:57:07;;;;;;;13.47;11.27;;;11.70;99.90;;;;;;4958577;29;20844;-82
2021/09/03 04:59:34;;;;;;;13.63;11.73;;;11.70;99.90;;;;;;4958576;29;20822;-82
2021/09/03 05:02:01;;;;;;;10.77;9.77;;;11.70;99.90;;;;;;4957488;29;20875;-82
2021/09/03 05:04:28;;;;;;;13.33;11.97;;;11.70;99.90;;;;;;4958825;29;20462;-82
2021/09/03 05:06:56;;;;;;;12.53;11.10;;;11.80;99.90;;;;;;4958141;29;20462;-82
2021/09/03 05:09:23;;;;;;;11.57;9.83;;;11.80;99.90;;;;;;4958981;29;20463;-82
2021/09/03 05:11:49;;;;;;;12.27;10.20;;;11.80;99.90;;;;;;4957578;29;20810;-82
2021/09/03 05:14:16;;;;;;;14.40;12.40;;;11.80;99.90;;;;;;4957866;29;20474;-82
2021/09/03 05:16:43;;;;;;;11.83;10.57;;;11.80;99.90;;;;;;4958347;28;20448;-82
2021/09/03 05:19:10;;;;;;;14.90;12.67;;;11.80;99.90;;;;;;4958153;29;20460;-82
2021/09/03 05:21:37;;;;;;;12.40;9.47;;;11.90;99.90;;;;;;4957033;29;20834;-82
2021/09/03 05:24:05;;;;;;;12.80;11.03;;;11.90;99.90;;;;;;4960157;28;21149;-82
2021/09/03 05:26:32;;;;;;;12.10;10.70;;;11.90;99.90;;;;;;4961862;29;20467;-82
2021/09/03 05:28:59;;;;;;;11.03;9.93;;;12.00;99.90;;;;;;4961694;29;20460;-82
2021/09/03 05:31:26;;;;;;;16.80;11.70;;;12.00;99.90;;;;;;4961453;29;20944;-82
2021/09/03 05:33:52;;;;;;;15.70;11.07;;;12.00;99.90;;;;;;4962926;28;20461;-82
2021/09/03 05:36:22;;;;;;;12.23;10.93;;;12.00;99.90;;;;;;4962599;28;20467;-82
2021/09/03 05:38:48;;;;;;;13.93;12.50;;;12.00;99.90;;;;;;4966493;28;20456;-82
2021/09/03 05:41:17;;;;;;;13.37;12.03;;;12.10;99.90;;;;;;4975568;29;20452;-82
2021/09/03 05:43:44;;;;;;;12.20;9.87;;;12.10;99.90;;;;;;4974750;28;20476;-82
2021/09/03 08:03:45;;;;;;;11.10;10.10;;;16.70;99.90;;;;;;4935632;28;20493;-85
2021/09/03 08:09:37;;;;;;;10.93;9.90;;;16.80;99.90;;;;;;4856500;29;20468;-86
2021/09/03 08:12:05;;;;;;;11.37;10.27;;;17.00;99.90;;;;;;4930174;29;20820;-85
2021/09/03 08:14:32;;;;;;;9.10;8.17;;;17.00;99.90;;;;;;4920211;29;20932;-85
2021/09/03 08:16:59;;;;;;;9.53;8.63;;;17.10;99.90;;;;;;4920955;29;20466;-85
2021/09/03 08:19:28;;;;;;;11.07;10.00;;;17.10;99.90;;;;;;4918768;29;20480;-87
2021/09/03 08:21:57;;;;;;;11.23;8.60;;;17.10;99.90;;;;;;4924940;29;20488;-85
2021/09/03 08:24:23;;;;;;;10.10;9.10;;;17.20;99.90;;;;;;4917990;29;20497;-86
2021/09/03 08:26:50;;;;;;;9.27;8.23;;;17.30;99.90;;;;;;4918512;29;20461;-85
2021/09/03 08:29:17;;;;;;;10.47;9.40;;;17.30;99.90;;;;;;4929919;29;20468;-85
2021/09/03 08:31:44;;;;;;;9.90;8.10;;;17.40;99.90;;;;;;4940356;29;20471;-85
2021/09/03 08:34:10;;;;;;;10.30;8.77;;;17.50;99.90;;;;;;4943202;29;20672;-84
2021/09/03 08:36:38;;;;;;;9.00;8.10;;;17.60;99.90;;;;;;4939895;29;20977;-86
2021/09/03 08:39:06;;;;;;;8.97;8.00;;;17.60;99.90;;;;;;4937620;29;20555;-85
2021/09/03 08:41:35;;;;;;;10.23;9.17;;;17.80;99.90;;;;;;4938163;29;20480;-85
2021/09/03 08:44:01;;;;;;;8.90;7.63;;;17.90;99.90;;;;;;4921873;29;20459;-86
2021/09/03 08:46:29;;;;;;;9.23;8.33;;;18.00;99.90;;;;;;4939060;29;20456;-85
2021/09/03 08:48:56;;;;;;;12.23;7.93;;;18.10;99.90;;;;;;4945418;29;20461;-86
2021/09/03 08:51:23;;;;;;;10.50;9.33;;;18.20;99.90;;;;;;4945938;29;20562;-85
2021/09/03 08:53:57;;;;;;;9.10;8.20;;;18.20;99.90;;;;;;4942857;29;20460;-86
2021/09/03 08:59:23;;;;;;;9.57;8.23;;;18.30;99.90;;;;;;4933783;29;20457;-85
2021/09/03 09:02:08;;;;;;;9.47;8.37;;;18.30;99.90;;;;;;4945864;29;20494;-86
2021/09/03 09:04:37;;;;;;;9.27;8.43;;;18.30;99.90;;;;;;4946019;29;20463;-85
2021/09/03 09:07:05;;;;;;;9.23;7.97;;;18.40;99.90;;;;;;4944624;29;20970;-85
2021/09/03 09:09:33;;;;;;;9.67;8.77;;;18.50;99.90;;;;;;4956610;29;20459;-85
2021/09/03 09:12:06;;;;;;;8.80;7.83;;;18.60;99.90;;;;;;4945419;29;20480;-86
2021/09/03 09:15:08;;;;;;;10.30;8.70;;;18.70;99.90;;;;;;4950361;29;20445;-85
2021/09/03 09:17:39;;;;;;;10.23;8.60;;;18.80;99.90;;;;;;4964205;29;20841;-85
2021/09/03 09:20:08;;;;;;;8.80;8.00;;;18.90;99.90;;;;;;4954046;29;20803;-85
2021/09/03 09:22:50;;;;;;;9.40;8.50;;;19.00;99.90;;;;;;4948346;29;20480;-84
2021/09/03 09:25:19;;;;;;;8.80;7.90;;;19.10;99.90;;;;;;4944702;29;20465;-85
2021/09/03 09:27:48;;;;;;;10.63;8.33;;;19.30;99.90;;;;;;4947378;29;20841;-85
2021/09/03 09:30:24;;;;;;;9.47;8.60;;;19.40;99.90;;;;;;4947925;29;20834;-85
2021/09/03 09:33:10;;;;;;;8.23;7.53;;;19.40;99.90;;;;;;4948264;29;20481;-85
2021/09/03 09:35:42;;;;;;;7.97;7.27;;;19.60;99.90;;;;;;4949334;29;20500;-85
2021/09/03 09:38:09;;;;;;;9.90;7.77;;;19.70;99.90;;;;;;4949876;29;20453;-85
2021/09/03 09:51:30;;;;;;;10.03;9.03;;;20.40;99.90;;;;;;4939399;29;20423;-88
2021/09/03 09:57:33;;;;;;;9.17;8.27;;;20.40;99.90;;;;;;4871401;29;20447;-85
2021/09/03 10:00:03;;;;;;;8.80;7.90;;;20.50;99.90;;;;;;4960765;29;20465;-85
2021/09/03 10:02:30;;;;;;;8.83;8.03;;;20.70;99.90;;;;;;4964030;29;20489;-84
2021/09/03 10:04:58;;;;;;;8.13;7.33;;;20.80;99.90;;;;;;4964264;29;20458;-85
2021/09/03 10:07:27;;;;;;;9.10;8.20;;;20.90;99.90;;;;;;4965869;29;20486;-84
2021/09/03 10:09:54;;;;;;;8.13;7.33;;;21.00;99.90;;;;;;4967713;28;20449;-85
2021/09/03 10:12:22;;;;;;;7.53;6.70;;;21.10;99.90;;;;;;4965456;29;20853;-84
2021/09/03 10:14:50;;;;;;;8.80;8.00;;;21.20;99.90;;;;;;4967886;29;20487;-84
2021/09/03 10:20:29;;;;;;;8.63;7.83;;;21.40;99.50;;;;;;4898451;29;20449;-86
2021/09/03 10:22:57;;;;;;;7.30;6.70;;;21.50;99.90;;;;;;4921831;29;20473;-85
2021/09/03 10:25:24;;;;;;;10.03;9.13;;;21.60;99.90;;;;;;4928850;29;20535;-86
2021/09/03 10:28:06;;;;;;;6.83;6.23;;;21.80;99.70;;;;;;4918529;29;20457;-85
2021/09/03 10:30:34;;;;;;;10.80;8.10;;;22.00;99.90;;;;;;4918509;29;20787;-87
2021/09/03 10:33:11;;;;;;;9.53;8.60;;;22.10;98.70;;;;;;4918504;29;20518;-85
2021/09/03 10:35:38;;;;;;;9.27;8.27;;;22.20;98.60;;;;;;4920727;29;20496;-84
2021/09/03 10:38:27;;;;;;;8.67;7.13;;;22.30;98.10;;;;;;4920249;29;20462;-85
2021/09/03 10:40:54;;;;;;;8.73;7.93;;;22.50;99.00;;;;;;4918827;29;20461;-87
2021/09/03 10:43:40;;;;;;;7.93;7.13;;;22.60;98.40;;;;;;4917119;29;20458;-87
2021/09/03 10:49:38;;;;;;;9.50;7.90;;;23.00;98.30;;;;;;4920804;29;20386;-88
2021/09/03 10:52:21;;;;;;;7.77;7.07;;;23.20;98.50;;;;;;4923560;29;20474;-87
2021/09/03 10:55:08;;;;;;;;;;;;;;;;;;;;;
2021/09/03 10:57:56;;;;;;;9.00;8.20;;;23.70;97.90;;;;;;4918223;29;20481;-85
2021/09/03 11:09:25;;;;;;;9.00;7.37;;;25.40;95.20;;;;;;4666578;26;20491;-88
2021/09/03 11:15:17;;;;;;;7.40;6.60;;;27.00;93.70;;;;;;4919483;29;20526;-88
2021/09/03 11:17:44;;;;;;;7.50;6.90;;;28.00;91.70;;;;;;4935618;29;20471;-88
2021/09/03 11:20:13;;;;;;;8.23;7.50;;;28.70;90.60;;;;;;4935966;29;20529;-89
2021/09/03 11:22:40;;;;;;;9.00;8.10;;;29.40;87.20;;;;;;4935111;29;20500;-85
2021/09/03 11:25:07;;;;;;;7.37;6.67;;;29.80;81.40;;;;;;4936092;29;20853;-87
2021/09/03 11:31:09;;;;;;;7.57;6.97;;;30.00;82.50;;;;;;4915297;29;20817;-87
2021/09/03 11:33:36;;;;;;;9.53;8.77;;;30.70;81.30;;;;;;4935785;29;20468;-86
2021/09/03 11:36:03;;;;;;;8.00;7.40;;;31.10;76.40;;;;;;4935778;29;20586;-86
2021/09/03 11:38:30;;;;;;;8.20;7.57;;;31.50;76.90;;;;;;4935632;29;21002;-87
2021/09/03 11:40:56;;;;;;;6.63;6.13;;;32.00;76.70;;;;;;4936103;29;20558;-86
2021/09/03 11:43:23;;;;;;;7.57;6.97;;;32.30;74.40;;;;;;4936368;29;20442;-86
2021/09/03 11:45:50;;;;;;;7.90;7.30;;;32.70;69.80;;;;;;4935757;29;20452;-87
2021/09/03 11:48:21;;;;;;;6.80;6.30;;;33.20;68.60;;;;;;4936007;29;20548;-87
2021/09/03 11:50:54;;;;;;;7.43;6.70;;;33.40;66.00;;;;;;4935851;29;20457;-87
2021/09/03 11:53:42;;;;;;;;;;;;;;;;;;;;;
2021/09/03 11:56:13;;;;;;;8.00;7.40;;;33.60;61.30;;;;;;4936723;29;20453;-86
2021/09/03 11:58:41;;;;;;;6.57;6.07;;;33.40;61.90;;;;;;4935337;29;20809;-86
2021/09/03 12:01:46;;;;;;;7.47;6.80;;;32.80;63.90;;;;;;4936309;29;20802;-87
2021/09/03 12:11:12;;;;;;;6.77;6.27;;;33.50;57.90;;;;;;4842975;29;20759;-88
2021/09/03 12:13:41;;;;;;;6.80;6.20;;;33.50;58.60;;;;;;4916202;29;20480;-86
2021/09/03 12:16:11;;;;;;;7.30;6.40;;;33.60;58.50;;;;;;4916119;29;20466;-86
2021/09/03 12:18:40;;;;;;;8.60;7.87;;;33.70;57.30;;;;;;4916231;29;20538;-87
2021/09/03 12:21:22;;;;;;;7.53;6.90;;;33.90;57.50;;;;;;4917674;29;20472;-87
2021/09/03 12:23:58;;;;;;;8.50;7.70;;;34.10;57.20;;;;;;4915795;29;20846;-86
2021/09/03 12:26:36;;;;;;;6.90;6.50;;;34.30;56.90;;;;;;4928004;29;20625;-87
2021/09/03 12:29:10;;;;;;;6.17;5.67;;;34.50;54.80;;;;;;4954187;29;20496;-88
2021/09/03 12:31:42;;;;;;;7.00;6.40;;;34.30;54.50;;;;;;4954717;28;20480;-87
2021/09/03 12:34:11;;;;;;;7.17;6.57;;;34.10;54.20;;;;;;4954211;29;20814;-86
2021/09/03 12:36:51;;;;;;;6.83;6.37;;;34.00;54.30;;;;;;4954194;29;20958;-86
2021/09/03 12:45:44;;;;;;;6.73;6.23;;;34.80;53.60;;;;;;4911420;29;20489;-85
2021/09/03 12:48:12;;;;;;;6.57;6.07;;;35.30;53.50;;;;;;4953870;29;20459;-86
2021/09/03 12:50:44;;;;;;;5.93;5.43;;;35.60;52.20;;;;;;4953199;29;20465;-84
2021/09/03 12:53:18;;;;;;;6.20;5.77;;;36.10;50.70;;;;;;4957892;28;21020;-84
2021/09/03 12:55:45;;;;;;;6.03;5.63;;;36.50;50.40;;;;;;4942150;29;20488;-84
2021/09/03 12:58:14;;;;;;;6.20;5.70;;;36.70;48.00;;;;;;4938505;29;20458;-86
2021/09/03 13:00:42;;;;;;;6.00;5.53;;;36.80;47.40;;;;;;4937617;29;20464;-82
2021/09/03 13:03:10;;;;;;;4.83;4.53;;;37.10;48.40;;;;;;4935431;29;20481;-86
2021/09/03 13:09:03;;;;;;;7.10;5.87;;;37.80;46.70;;;;;;4932227;29;20533;-85
2021/09/03 13:11:30;;;;;;;5.73;5.33;;;38.00;45.40;;;;;;4933830;29;21032;-86
2021/09/03 13:13:56;;;;;;;6.33;5.93;;;38.30;44.60;;;;;;4934677;29;20446;-87
2021/09/03 13:16:28;;;;;;;6.10;5.60;;;38.50;44.30;;;;;;4934426;29;20446;-85
2021/09/03 13:18:55;;;;;;;6.53;6.00;;;38.50;43.20;;;;;;4934351;29;20968;-85
2021/09/03 13:21:22;;;;;;;6.20;5.70;;;38.40;43.80;;;;;;4934722;29;20480;-84
2021/09/03 13:23:54;;;;;;;5.43;5.07;;;38.50;45.60;;;;;;4934551;29;20809;-86
2021/09/03 13:26:21;;;;;;;5.17;4.87;;;38.80;43.00;;;;;;4934519;29;20500;-85
2021/09/03 13:28:47;;;;;;;6.10;5.60;;;38.80;42.30;;;;;;4934528;29;20469;-84
2021/09/03 13:31:19;;;;;;;7.03;5.77;;;38.80;41.50;;;;;;4934557;29;20480;-86
2021/09/03 13:33:49;;;;;;;6.10;5.60;;;38.90;41.40;;;;;;4934669;29;20436;-86
2021/09/03 13:36:15;;;;;;;6.07;5.67;;;39.10;42.70;;;;;;4934556;29;20450;-85
2021/09/03 13:38:43;;;;;;;6.00;5.60;;;39.50;42.10;;;;;;4934205;29;20528;-86
2021/09/03 13:41:10;;;;;;;5.87;5.47;;;39.50;41.00;;;;;;4934205;29;20532;-84
2021/09/03 13:43:38;;;;;;;5.70;5.30;;;38.70;38.60;;;;;;4934001;29;20457;-85
2021/09/03 13:46:05;;;;;;;5.70;5.27;;;38.70;41.10;;;;;;4937775;29;20496;-84
2021/09/03 13:48:32;;;;;;;6.60;6.10;;;38.90;39.70;;;;;;4938216;29;20469;-85
2021/09/03 13:51:00;;;;;;;5.50;5.10;;;38.90;41.60;;;;;;4939487;29;20465;-85
2021/09/03 13:53:42;;;;;;;5.80;5.40;;;39.30;41.60;;;;;;4932305;29;20947;-85
2021/09/03 13:56:09;;;;;;;5.13;4.73;;;39.60;39.50;;;;;;4946565;29;20449;-85
2021/09/03 13:58:36;;;;;;;5.03;4.73;;;39.90;38.50;;;;;;4937131;29;20450;-83
2021/09/03 14:01:03;;;;;;;8.33;5.90;;;39.80;38.30;;;;;;4939225;29;20467;-83
2021/09/03 14:03:31;;;;;;;4.70;4.40;;;39.80;38.00;;;;;;4936378;29;20832;-83
2021/09/03 14:06:05;;;;;;;5.50;5.10;;;39.60;38.80;;;;;;4937376;29;20517;-85
2021/09/03 14:08:32;;;;;;;5.87;5.43;;;39.50;38.30;;;;;;4941133;29;20459;-85
2021/09/03 14:10:58;;;;;;;6.10;5.60;;;39.20;37.50;;;;;;4941215;29;20462;-85
2021/09/03 14:13:25;;;;;;;4.77;4.47;;;37.80;38.10;;;;;;4942400;29;20462;-84
2021/09/03 14:15:52;;;;;;;6.20;5.73;;;37.70;39.70;;;;;;4946823;29;20465;-84
2021/09/03 14:18:19;;;;;;;4.97;4.57;;;37.30;38.90;;;;;;4949666;29;20974;-85
2021/09/03 14:20:46;;;;;;;6.13;5.63;;;36.70;39.70;;;;;;4947961;29;20458;-84
2021/09/03 14:23:14;;;;;;;5.30;4.80;;;36.10;40.90;;;;;;4943781;29;20470;-84
2021/09/03 14:25:41;;;;;;;6.00;5.60;;;35.70;41.20;;;;;;4941594;29;20460;-84
2021/09/03 14:28:09;;;;;;;5.07;4.77;;;35.10;41.60;;;;;;4946373;29;21039;-84
2021/09/03 14:30:36;;;;;;;5.50;5.10;;;34.60;41.80;;;;;;4948961;29;20457;-84
2021/09/03 14:33:03;;;;;;;5.50;5.20;;;34.30;42.80;;;;;;4943430;29;20485;-85
2021/09/03 14:35:29;;;;;;;5.17;4.80;;;33.70;42.40;;;;;;4942606;29;20467;-84
2021/09/03 14:37:56;;;;;;;5.83;5.33;;;32.80;45.20;;;;;;4943116;29;20533;-84
2021/09/03 14:40:24;;;;;;;5.03;4.67;;;32.00;46.30;;;;;;4942232;29;20455;-84
2021/09/03 14:42:54;;;;;;;5.30;4.87;;;31.70;47.00;;;;;;4937741;29;20476;-83
2021/09/03 14:45:21;;;;;;;5.73;5.33;;;31.60;46.40;;;;;;4940081;29;20549;-83
2021/09/03 14:47:47;;;;;;;5.50;4.73;;;31.40;46.40;;;;;;4938616;29;20500;-85
2021/09/03 14:50:14;;;;;;;5.40;4.97;;;31.30;47.30;;;;;;4937097;29;20460;-83
2021/09/03 14:52:41;;;;;;;5.20;4.70;;;31.10;46.20;;;;;;4937553;29;20972;-84
2021/09/03 14:55:09;;;;;;;6.33;5.83;;;31.10;46.30;;;;;;4938261;29;20464;-83
2021/09/03 14:57:37;;;;;;;5.47;5.07;;;31.10;47.10;;;;;;4938119;29;20475;-83
2021/09/03 15:00:05;;;;;;;5.57;5.17;;;31.00;48.10;;;;;;4939068;29;20847;-83
2021/09/03 15:02:32;;;;;;;5.70;5.30;;;31.00;48.90;;;;;;4938428;29;20481;-83
2021/09/03 15:05:00;;;;;;;4.97;4.57;;;31.10;49.30;;;;;;4940174;29;20465;-83
2021/09/03 15:07:27;;;;;;;5.90;5.40;;;31.30;47.50;;;;;;4940340;29;20492;-83
2021/09/03 15:09:54;;;;;;;5.60;5.10;;;31.50;46.00;;;;;;4939326;29;20461;-83
2021/09/03 15:12:20;;;;;;;5.90;5.30;;;31.50;46.50;;;;;;4939199;29;20487;-83
2021/09/03 15:14:48;;;;;;;5.27;4.87;;;31.60;47.50;;;;;;4940300;29;20447;-83
2021/09/03 15:17:16;;;;;;;5.33;4.83;;;31.70;47.10;;;;;;4938632;29;20458;-83
2021/09/03 15:19:42;;;;;;;5.37;4.80;;;31.80;46.90;;;;;;4940569;29;20459;-82
2021/09/03 15:22:10;;;;;;;5.60;5.10;;;31.70;46.40;;;;;;4939825;29;21007;-83
2021/09/03 15:24:37;;;;;;;5.43;5.03;;;31.70;46.30;;;;;;4939338;29;20461;-83
2021/09/03 15:27:06;;;;;;;5.43;4.60;;;31.50;46.50;;;;;;4939087;29;20498;-83
2021/09/03 15:29:33;;;;;;;6.10;5.60;;;31.20;48.00;;;;;;4938912;29;20495;-83
2021/09/03 15:32:01;;;;;;;6.47;5.87;;;30.90;47.70;;;;;;4939523;29;20477;-83
2021/09/03 15:34:28;;;;;;;5.90;5.40;;;30.60;47.90;;;;;;4941379;29;20846;-82
2021/09/03 15:36:55;;;;;;;5.30;4.80;;;30.30;48.50;;;;;;4941196;29;20456;-83
2021/09/03 15:39:22;;;;;;;5.53;5.13;;;30.00;49.30;;;;;;4940505;29;20454;-83
2021/09/03 15:41:49;;;;;;;5.63;5.20;;;29.40;49.90;;;;;;4939905;29;20481;-83
2021/09/03 15:44:16;;;;;;;5.83;5.33;;;29.30;50.60;;;;;;4940821;29;20480;-82
2021/09/03 15:46:43;;;;;;;5.40;4.90;;;29.20;51.00;;;;;;4940426;29;20489;-83
2021/09/03 15:49:12;;;;;;;5.73;5.20;;;29.30;51.30;;;;;;4939455;29;20465;-82
2021/09/03 15:51:39;;;;;;;5.80;5.40;;;29.50;51.40;;;;;;4939799;29;20509;-83
2021/09/03 15:54:06;;;;;;;5.40;5.00;;;29.80;50.80;;;;;;4939737;29;20459;-83
2021/09/03 15:56:33;;;;;;;6.43;5.93;;;29.90;50.10;;;;;;4938592;29;20454;-82
2021/09/03 15:58:59;;;;;;;6.17;5.60;;;29.80;49.60;;;;;;4938926;29;20478;-82
2021/09/03 16:01:26;;;;;;;6.13;5.53;;;29.70;50.30;;;;;;4937211;29;20478;-83
2021/09/03 16:03:53;;;;;;;5.83;5.30;;;29.90;51.20;;;;;;4938901;29;20937;-83
2021/09/03 16:06:21;;;;;;;5.33;4.93;;;29.70;49.40;;;;;;4937605;29;20459;-82
2021/09/03 16:08:48;;;;;;;6.13;5.63;;;29.80;50.60;;;;;;4938053;29;20458;-82